createdAt,value
2022-11-19T00:00:01.212Z,29.20
2022-11-19T00:05:05.132Z,28.27
2022-11-19T00:10:10.735Z,28.12
2022-11-19T00:15:14.618Z,28.50
2022-11-19T00:20:18.621Z,30.27
2022-11-19T00:25:24.883Z,31.40
2022-11-19T00:35:52.398Z,31.25
2022-11-19T00:40:57.748Z,34.03
2022-11-19T00:46:01.523Z,35.30
2022-11-19T00:51:05.268Z,34.53
2022-11-19T00:56:13.464Z,36.08
2022-11-19T01:01:19.505Z,29.58
2022-11-19T01:06:26.748Z,33.90
2022-11-19T01:11:33.707Z,36.28
2022-11-19T01:16:39.407Z,32.50
2022-11-19T01:21:43.242Z,29.12
2022-11-19T01:26:48.337Z,32.38
2022-11-19T01:31:51.997Z,21.73
2022-11-19T01:36:55.820Z,21.17
2022-11-19T01:42:00.869Z,24.02
2022-11-19T01:47:04.574Z,22.17
2022-11-19T01:52:08.377Z,23.50
2022-11-19T01:57:16.479Z,24.83
2022-11-19T02:02:22.657Z,26.83
2022-11-19T02:07:29.394Z,24.63
2022-11-19T02:12:46.734Z,21.85
2022-11-19T02:18:25.872Z,24.63
2022-11-19T02:23:58.525Z,23.55
2022-11-19T02:29:13.866Z,23.27
2022-11-19T02:34:25.742Z,24.70
2022-11-19T02:39:38.012Z,27.13
2022-11-19T02:45:00.002Z,23.87
2022-11-19T02:50:10.723Z,27.60
2022-11-19T02:55:19.986Z,28.27
2022-11-19T03:00:41.255Z,24.98
2022-11-19T03:05:51.615Z,22.25
2022-11-19T03:11:07.098Z,22.80
2022-11-19T03:16:35.958Z,19.62
2022-11-19T03:21:46.985Z,19.52
2022-11-19T03:26:55.565Z,21.42
2022-11-19T03:32:04.446Z,24.80
2022-11-19T03:37:10.728Z,21.12
2022-11-19T03:42:18.209Z,23.27
2022-11-19T03:47:25.677Z,22.10
2022-11-19T03:52:30.867Z,28.17
2022-11-19T03:57:34.837Z,29.15
2022-11-19T04:02:38.545Z,22.08
2022-11-19T04:07:43.589Z,22.48
2022-11-19T04:12:47.476Z,22.35
2022-11-19T04:17:51.089Z,26.08
2022-11-19T04:22:56.139Z,23.60
2022-11-19T04:27:59.770Z,26.25
2022-11-19T04:33:03.511Z,26.50
2022-11-19T04:38:08.598Z,30.42
2022-11-19T04:43:12.261Z,27.80
2022-11-19T04:48:15.916Z,29.67
2022-11-19T04:53:20.991Z,28.45
2022-11-19T04:58:24.718Z,28.35
2022-11-19T05:03:28.629Z,35.67
2022-11-19T05:08:33.627Z,33.78
2022-11-19T05:13:37.463Z,35.38
2022-11-19T05:18:41.243Z,37.42
2022-11-19T05:23:46.313Z,34.65
2022-11-19T05:28:50.062Z,37.33
2022-11-19T05:33:53.746Z,36.80
2022-11-19T05:38:58.852Z,36.60
2022-11-19T05:44:02.782Z,41.33
2022-11-19T05:49:06.582Z,39.72
2022-11-19T05:54:12.018Z,41.37
2022-11-19T05:59:15.854Z,38.95
2022-11-19T06:04:19.663Z,39.67
2022-11-19T06:09:24.785Z,40.15
2022-11-19T06:14:28.670Z,42.53
2022-11-19T06:19:32.363Z,43.05
2022-11-19T06:24:37.429Z,41.28
2022-11-19T06:29:41.135Z,44.90
2022-11-19T06:34:44.802Z,39.80
2022-11-19T06:39:49.902Z,44.05
2022-11-19T06:44:53.691Z,44.67
2022-11-19T06:49:57.430Z,46.37
2022-11-19T06:55:02.705Z,47.38
2022-11-19T07:00:07.586Z,45.12
2022-11-19T07:05:11.365Z,44.63
2022-11-19T07:10:17.155Z,48.03
2022-11-19T07:15:20.943Z,45.88
2022-11-19T07:20:24.626Z,46.17
2022-11-19T07:25:29.993Z,49.53
2022-11-19T07:30:33.737Z,52.45
2022-11-19T07:35:37.454Z,47.75
2022-11-19T07:40:42.594Z,53.30
2022-11-19T07:45:46.408Z,52.17
2022-11-19T07:50:56.512Z,50.53
2022-11-19T07:56:02.538Z,52.33
2022-11-19T08:01:10.270Z,50.53
2022-11-19T08:06:14.075Z,53.50
2022-11-19T08:11:19.423Z,59.03
2022-11-19T08:16:40.802Z,57.33
2022-11-19T08:21:46.519Z,53.80
2022-11-19T08:26:51.669Z,54.88
2022-11-19T08:31:55.397Z,51.65
2022-11-19T08:36:59.185Z,54.67
2022-11-19T08:42:21.810Z,57.25
2022-11-19T08:47:25.513Z,55.28
2022-11-19T08:52:29.363Z,54.58
2022-11-19T08:57:34.523Z,54.83
2022-11-19T09:02:38.381Z,53.83
2022-11-19T09:07:42.156Z,53.60
2022-11-19T09:12:47.442Z,60.30
2022-11-19T09:17:51.196Z,52.67
2022-11-19T09:22:54.915Z,55.78
2022-11-19T09:27:59.997Z,59.33
2022-11-19T09:33:03.802Z,53.60
2022-11-19T09:38:07.532Z,51.92
2022-11-19T09:43:21.255Z,52.60
2022-11-19T09:48:33.215Z,49.88
2022-11-19T09:53:43.772Z,52.25
2022-11-19T09:58:49.137Z,51.60
2022-11-19T10:03:55.615Z,51.20
2022-11-19T10:09:34.004Z,54.80
2022-11-19T10:14:56.443Z,51.33
2022-11-19T10:20:14.462Z,51.45
2022-11-19T10:25:19.987Z,51.92
2022-11-19T10:30:26.795Z,50.15
2022-11-19T10:35:33.391Z,50.47
2022-11-19T10:40:40.964Z,49.88
2022-11-19T10:45:46.009Z,58.08
2022-11-19T10:50:50.734Z,46.95
2022-11-19T10:55:58.607Z,50.55
2022-11-19T11:01:05.961Z,51.47
2022-11-19T11:06:10.356Z,50.47
2022-11-19T11:11:14.223Z,48.17
2022-11-19T11:16:21.425Z,52.35
2022-11-19T11:21:39.720Z,51.42
2022-11-19T11:31:49.231Z,47.67
2022-11-19T11:36:54.056Z,48.17
2022-11-19T11:42:05.797Z,43.10
2022-11-19T11:47:16.171Z,42.60
2022-11-19T11:52:23.973Z,45.83
2022-11-19T11:57:29.384Z,52.75
2022-11-19T12:02:36.436Z,45.33
2022-11-19T12:08:03.782Z,55.47
2022-11-19T12:13:46.645Z,45.03
2022-11-19T12:19:09.053Z,42.17
2022-11-19T12:24:30.539Z,44.03
2022-11-19T12:29:42.765Z,44.05
2022-11-19T12:35:13.939Z,40.67
2022-11-19T12:40:38.373Z,34.00
2022-11-19T12:45:53.431Z,38.10
2022-11-19T12:51:13.170Z,35.25
2022-11-19T12:56:31.296Z,36.10
2022-11-19T13:06:49.955Z,33.35
2022-11-19T13:11:57.754Z,32.08
2022-11-19T13:17:04.901Z,33.17
2022-11-19T13:22:17.200Z,31.12
2022-11-19T13:27:25.254Z,29.77
2022-11-19T13:32:35.882Z,32.42
2022-11-19T13:37:47.678Z,29.08
2022-11-19T13:48:37.599Z,28.60
2022-11-19T13:53:46.217Z,29.95
2022-11-19T13:58:52.613Z,34.42
2022-11-19T14:04:16.142Z,28.20
2022-11-19T14:09:32.480Z,31.98
2022-11-19T14:15:06.591Z,31.83
2022-11-19T14:20:50.194Z,28.87
2022-11-19T14:26:27.779Z,27.15
2022-11-19T14:31:31.528Z,27.45
2022-11-19T14:36:46.187Z,26.67
2022-11-19T14:42:14.951Z,27.15
2022-11-19T14:47:39.275Z,25.88
2022-11-19T14:52:52.982Z,26.35
2022-11-19T14:58:02.624Z,28.62
2022-11-19T15:03:09.641Z,22.65
2022-11-19T15:08:31.395Z,24.40
2022-11-19T15:13:37.613Z,21.85
2022-11-19T15:19:19.320Z,24.55
2022-11-19T15:24:36.255Z,24.05
2022-11-19T15:30:07.117Z,22.25
2022-11-19T15:35:28.838Z,19.33
2022-11-19T15:40:35.179Z,23.38
2022-11-19T15:45:46.123Z,21.98
2022-11-19T15:50:50.649Z,22.90
2022-11-19T15:55:57.801Z,24.15
2022-11-19T16:01:03.411Z,21.10
2022-11-19T16:06:11.371Z,20.33
2022-11-19T16:11:37.756Z,20.75
2022-11-19T16:17:00.523Z,22.33
2022-11-19T16:22:06.194Z,21.85
2022-11-19T16:27:13.152Z,23.05
2022-11-19T16:32:20.632Z,25.90
2022-11-19T16:37:25.385Z,21.30
2022-11-19T16:42:30.866Z,20.00
2022-11-19T16:47:38.526Z,25.23
2022-11-19T16:52:43.986Z,23.05
2022-11-19T16:57:48.982Z,22.50
2022-11-19T17:02:54.167Z,21.65
2022-11-19T17:08:06.131Z,19.15
2022-11-19T17:13:29.597Z,19.33
2022-11-19T17:18:35.383Z,23.38
2022-11-19T17:23:48.857Z,22.00
2022-11-19T17:28:58.302Z,19.83
2022-11-19T17:34:12.315Z,22.50
2022-11-19T17:39:21.088Z,22.83
2022-11-19T17:44:34.664Z,21.35
2022-11-19T17:49:39.914Z,18.73
2022-11-19T17:54:46.420Z,20.80
2022-11-19T17:59:50.179Z,22.33
2022-11-19T18:04:55.262Z,16.12
2022-11-19T18:09:58.963Z,19.02
2022-11-19T18:15:02.802Z,15.73
2022-11-19T18:20:09.827Z,16.70
2022-11-19T18:25:15.804Z,24.87
2022-11-19T18:30:19.698Z,32.10
2022-11-19T18:35:27.681Z,22.58
2022-11-19T18:40:31.492Z,28.00
2022-11-19T18:45:35.221Z,19.70
2022-11-19T18:50:41.706Z,21.62
2022-11-19T18:55:48.280Z,17.37
2022-11-19T19:00:52.487Z,18.45
2022-11-19T19:05:57.526Z,18.05
2022-11-19T19:11:15.615Z,18.85
2022-11-19T19:16:19.389Z,20.08
2022-11-19T19:21:24.680Z,16.33
2022-11-19T19:26:28.417Z,17.67
2022-11-19T19:31:32.422Z,18.70
2022-11-19T19:36:37.635Z,18.15
2022-11-19T19:41:41.458Z,17.12
2022-11-19T19:46:47.814Z,24.63
2022-11-19T19:51:53.146Z,20.02
2022-11-19T19:56:56.832Z,19.12
2022-11-19T20:02:00.639Z,21.60
2022-11-19T20:07:05.754Z,17.73
2022-11-19T20:12:09.513Z,18.20
2022-11-19T20:17:13.367Z,17.00
2022-11-19T20:22:18.465Z,17.65
2022-11-19T20:27:22.887Z,15.10
2022-11-19T20:32:26.734Z,17.25
2022-11-19T20:37:32.035Z,19.12
2022-11-19T20:42:53.378Z,14.63
2022-11-19T20:47:57.431Z,17.10
2022-11-19T20:53:02.511Z,14.85
2022-11-19T20:58:06.250Z,12.27
2022-11-19T21:03:10.055Z,16.33
2022-11-19T21:08:16.363Z,15.18
2022-11-19T21:13:20.089Z,13.77
2022-11-19T21:18:24.621Z,13.20
2022-11-19T21:23:30.445Z,16.52
2022-11-19T21:28:35.279Z,16.30
2022-11-19T21:33:39.037Z,14.00
2022-11-19T21:38:44.088Z,13.00
2022-11-19T21:43:47.890Z,13.85
2022-11-19T21:48:51.663Z,15.63
2022-11-19T21:53:58.082Z,12.98
2022-11-19T21:59:01.753Z,15.55
2022-11-19T22:04:06.021Z,20.75
2022-11-19T22:09:11.209Z,18.33
2022-11-19T22:14:14.953Z,21.33
2022-11-19T22:19:19.188Z,21.27
2022-11-19T22:24:24.509Z,18.87
2022-11-19T22:29:29.111Z,16.62
2022-11-19T22:34:32.823Z,16.25
2022-11-19T22:39:37.851Z,17.67
2022-11-19T22:44:41.693Z,18.20
2022-11-19T22:49:45.455Z,19.25
2022-11-19T22:54:50.522Z,17.67
2022-11-19T22:59:54.373Z,19.45
2022-11-19T23:04:59.182Z,36.55
2022-11-19T23:10:04.525Z,19.73
2022-11-19T23:15:08.929Z,23.85
2022-11-19T23:20:13.001Z,28.73
2022-11-19T23:25:18.109Z,22.67
2022-11-19T23:30:21.882Z,19.62
2022-11-19T23:35:25.589Z,20.50
2022-11-19T23:40:30.622Z,21.37
2022-11-19T23:45:36.548Z,17.77
2022-11-19T23:50:40.255Z,18.60
2022-11-19T23:55:48.422Z,24.98
